sensor_id;sensor_type;location;lat;lon;timestamp;P1;durP1;ratioP1;P2;durP2;ratioP2
46597;SDS011;32318;48.858;8.252;2023-12-20T00:04:55;9.38;;;3.50;;
46597;SDS011;32318;48.858;8.252;2023-12-20T00:12:56;7.15;;;3.88;;
46597;SDS011;32318;48.858;8.252;2023-12-20T00:20:56;7.03;;;3.42;;
46597;SDS011;32318;48.858;8.252;2023-12-20T00:28:56;8.20;;;3.65;;
46597;SDS011;32318;48.858;8.252;2023-12-20T00:36:57;7.20;;;3.30;;
46597;SDS011;32318;48.858;8.252;2023-12-20T00:44:58;9.00;;;3.60;;
46597;SDS011;32318;48.858;8.252;2023-12-20T00:52:59;6.97;;;3.78;;
46597;SDS011;32318;48.858;8.252;2023-12-20T01:00:59;9.60;;;4.00;;
46597;SDS011;32318;48.858;8.252;2023-12-20T01:08:59;9.52;;;3.78;;
46597;SDS011;32318;48.858;8.252;2023-12-20T01:17:00;6.47;;;3.42;;
46597;SDS011;32318;48.858;8.252;2023-12-20T01:25:00;7.43;;;3.38;;
46597;SDS011;32318;48.858;8.252;2023-12-20T01:33:00;5.25;;;3.25;;
46597;SDS011;32318;48.858;8.252;2023-12-20T01:41:01;7.75;;;3.30;;
46597;SDS011;32318;48.858;8.252;2023-12-20T01:49:01;6.07;;;3.10;;
46597;SDS011;32318;48.858;8.252;2023-12-20T01:57:02;7.57;;;3.53;;
46597;SDS011;32318;48.858;8.252;2023-12-20T02:05:03;7.95;;;3.20;;
46597;SDS011;32318;48.858;8.252;2023-12-20T02:13:04;5.80;;;3.23;;
46597;SDS011;32318;48.858;8.252;2023-12-20T02:21:05;7.13;;;3.30;;
46597;SDS011;32318;48.858;8.252;2023-12-20T02:29:05;7.85;;;3.13;;
46597;SDS011;32318;48.858;8.252;2023-12-20T02:37:06;4.72;;;3.20;;
46597;SDS011;32318;48.858;8.252;2023-12-20T02:45:07;7.25;;;3.33;;
46597;SDS011;32318;48.858;8.252;2023-12-20T02:53:08;5.40;;;2.80;;
46597;SDS011;32318;48.858;8.252;2023-12-20T03:01:08;9.98;;;3.08;;
46597;SDS011;32318;48.858;8.252;2023-12-20T03:09:08;5.18;;;3.20;;
46597;SDS011;32318;48.858;8.252;2023-12-20T03:17:09;7.20;;;3.20;;
46597;SDS011;32318;48.858;8.252;2023-12-20T03:25:09;7.03;;;3.83;;
46597;SDS011;32318;48.858;8.252;2023-12-20T03:33:09;9.27;;;3.80;;
46597;SDS011;32318;48.858;8.252;2023-12-20T03:41:11;6.68;;;3.20;;
46597;SDS011;32318;48.858;8.252;2023-12-20T03:49:12;7.70;;;2.88;;
46597;SDS011;32318;48.858;8.252;2023-12-20T03:57:12;6.35;;;2.70;;
46597;SDS011;32318;48.858;8.252;2023-12-20T04:05:12;6.35;;;3.00;;
46597;SDS011;32318;48.858;8.252;2023-12-20T04:13:13;6.35;;;2.85;;
46597;SDS011;32318;48.858;8.252;2023-12-20T04:21:13;4.00;;;2.53;;
46597;SDS011;32318;48.858;8.252;2023-12-20T04:29:13;5.90;;;2.70;;
46597;SDS011;32318;48.858;8.252;2023-12-20T04:37:13;7.35;;;3.72;;
46597;SDS011;32318;48.858;8.252;2023-12-20T04:45:14;8.57;;;3.47;;
46597;SDS011;32318;48.858;8.252;2023-12-20T04:53:15;14.77;;;5.93;;
46597;SDS011;32318;48.858;8.252;2023-12-20T05:01:15;10.25;;;4.03;;
46597;SDS011;32318;48.858;8.252;2023-12-20T05:09:16;9.75;;;3.75;;
46597;SDS011;32318;48.858;8.252;2023-12-20T05:17:17;7.60;;;3.70;;
46597;SDS011;32318;48.858;8.252;2023-12-20T05:25:18;5.55;;;3.33;;
46597;SDS011;32318;48.858;8.252;2023-12-20T05:33:18;6.32;;;3.30;;
46597;SDS011;32318;48.858;8.252;2023-12-20T05:41:19;6.80;;;3.90;;
46597;SDS011;32318;48.858;8.252;2023-12-20T05:49:19;7.72;;;3.65;;
46597;SDS011;32318;48.858;8.252;2023-12-20T05:57:19;8.63;;;4.28;;
46597;SDS011;32318;48.858;8.252;2023-12-20T06:05:20;8.52;;;4.30;;
46597;SDS011;32318;48.858;8.252;2023-12-20T06:13:20;7.07;;;3.95;;
46597;SDS011;32318;48.858;8.252;2023-12-20T06:21:20;6.28;;;3.60;;
46597;SDS011;32318;48.858;8.252;2023-12-20T06:29:21;7.55;;;3.78;;
46597;SDS011;32318;48.858;8.252;2023-12-20T06:37:21;12.27;;;5.22;;
46597;SDS011;32318;48.858;8.252;2023-12-20T06:45:21;6.82;;;4.07;;
46597;SDS011;32318;48.858;8.252;2023-12-20T06:53:21;9.32;;;5.88;;
46597;SDS011;32318;48.858;8.252;2023-12-20T07:01:22;11.02;;;4.40;;
46597;SDS011;32318;48.858;8.252;2023-12-20T07:09:22;8.47;;;4.50;;
46597;SDS011;32318;48.858;8.252;2023-12-20T07:17:24;7.60;;;3.95;;
46597;SDS011;32318;48.858;8.252;2023-12-20T07:25:24;7.60;;;3.85;;
46597;SDS011;32318;48.858;8.252;2023-12-20T07:33:25;9.73;;;4.93;;
46597;SDS011;32318;48.858;8.252;2023-12-20T07:41:25;10.55;;;4.53;;
46597;SDS011;32318;48.858;8.252;2023-12-20T07:49:25;11.32;;;5.40;;
46597;SDS011;32318;48.858;8.252;2023-12-20T07:57:28;13.07;;;5.22;;
46597;SDS011;32318;48.858;8.252;2023-12-20T08:05:29;9.15;;;4.72;;
46597;SDS011;32318;48.858;8.252;2023-12-20T08:13:29;9.50;;;4.75;;
46597;SDS011;32318;48.858;8.252;2023-12-20T08:21:30;12.98;;;5.30;;
46597;SDS011;32318;48.858;8.252;2023-12-20T08:29:30;11.80;;;6.05;;
46597;SDS011;32318;48.858;8.252;2023-12-20T08:37:31;15.23;;;6.28;;
46597;SDS011;32318;48.858;8.252;2023-12-20T08:45:31;17.88;;;4.45;;
46597;SDS011;32318;48.858;8.252;2023-12-20T08:53:31;13.75;;;3.80;;
46597;SDS011;32318;48.858;8.252;2023-12-20T09:01:32;9.70;;;4.30;;
46597;SDS011;32318;48.858;8.252;2023-12-20T09:09:32;14.23;;;3.22;;
46597;SDS011;32318;48.858;8.252;2023-12-20T09:17:32;13.15;;;2.75;;
46597;SDS011;32318;48.858;8.252;2023-12-20T09:25:32;4.50;;;2.85;;
46597;SDS011;32318;48.858;8.252;2023-12-20T09:33:33;18.45;;;4.05;;
46597;SDS011;32318;48.858;8.252;2023-12-20T09:41:35;12.35;;;3.25;;
46597;SDS011;32318;48.858;8.252;2023-12-20T09:49:38;8.95;;;3.42;;
46597;SDS011;32318;48.858;8.252;2023-12-20T09:57:39;14.23;;;3.67;;
46597;SDS011;32318;48.858;8.252;2023-12-20T10:05:39;18.73;;;5.10;;
46597;SDS011;32318;48.858;8.252;2023-12-20T10:13:43;15.55;;;4.25;;
46597;SDS011;32318;48.858;8.252;2023-12-20T10:21:43;8.50;;;3.20;;
46597;SDS011;32318;48.858;8.252;2023-12-20T10:29:44;21.67;;;3.20;;
46597;SDS011;32318;48.858;8.252;2023-12-20T10:37:45;11.80;;;3.20;;
46597;SDS011;32318;48.858;8.252;2023-12-20T10:45:45;15.70;;;3.20;;
46597;SDS011;32318;48.858;8.252;2023-12-20T10:53:46;9.43;;;2.78;;
46597;SDS011;32318;48.858;8.252;2023-12-20T11:01:48;11.85;;;2.92;;
46597;SDS011;32318;48.858;8.252;2023-12-20T11:09:58;13.65;;;3.67;;
46597;SDS011;32318;48.858;8.252;2023-12-20T11:18:02;11.43;;;2.65;;
46597;SDS011;32318;48.858;8.252;2023-12-20T11:26:04;11.20;;;2.38;;
46597;SDS011;32318;48.858;8.252;2023-12-20T11:34:12;12.88;;;2.50;;
46597;SDS011;32318;48.858;8.252;2023-12-20T11:42:14;14.57;;;2.80;;
46597;SDS011;32318;48.858;8.252;2023-12-20T11:50:16;10.10;;;2.50;;
46597;SDS011;32318;48.858;8.252;2023-12-20T11:58:17;8.80;;;2.80;;
46597;SDS011;32318;48.858;8.252;2023-12-20T12:06:17;21.08;;;3.83;;
46597;SDS011;32318;48.858;8.252;2023-12-20T12:14:17;12.00;;;2.60;;
46597;SDS011;32318;48.858;8.252;2023-12-20T12:22:19;13.60;;;3.08;;
46597;SDS011;32318;48.858;8.252;2023-12-20T12:30:20;14.05;;;2.75;;
46597;SDS011;32318;48.858;8.252;2023-12-20T12:38:20;14.23;;;2.90;;
46597;SDS011;32318;48.858;8.252;2023-12-20T12:46:21;13.80;;;3.08;;
46597;SDS011;32318;48.858;8.252;2023-12-20T12:54:21;15.70;;;2.80;;
46597;SDS011;32318;48.858;8.252;2023-12-20T13:02:22;23.13;;;3.00;;
46597;SDS011;32318;48.858;8.252;2023-12-20T13:10:22;10.55;;;2.53;;
46597;SDS011;32318;48.858;8.252;2023-12-20T13:18:22;16.13;;;2.35;;
46597;SDS011;32318;48.858;8.252;2023-12-20T13:26:23;15.68;;;3.17;;
46597;SDS011;32318;48.858;8.252;2023-12-20T13:34:23;12.32;;;2.67;;
46597;SDS011;32318;48.858;8.252;2023-12-20T13:42:23;23.63;;;3.00;;
46597;SDS011;32318;48.858;8.252;2023-12-20T13:50:23;13.50;;;2.65;;
46597;SDS011;32318;48.858;8.252;2023-12-20T13:58:24;13.13;;;2.42;;
46597;SDS011;32318;48.858;8.252;2023-12-20T14:06:24;12.52;;;2.67;;
46597;SDS011;32318;48.858;8.252;2023-12-20T14:14:24;15.25;;;3.45;;
46597;SDS011;32318;48.858;8.252;2023-12-20T14:22:24;15.38;;;3.58;;
46597;SDS011;32318;48.858;8.252;2023-12-20T14:30:25;18.65;;;3.78;;
46597;SDS011;32318;48.858;8.252;2023-12-20T14:38:25;14.50;;;2.75;;
46597;SDS011;32318;48.858;8.252;2023-12-20T14:46:26;14.63;;;3.20;;
46597;SDS011;32318;48.858;8.252;2023-12-20T14:54:26;18.27;;;2.70;;
46597;SDS011;32318;48.858;8.252;2023-12-20T15:02:26;24.33;;;4.28;;
46597;SDS011;32318;48.858;8.252;2023-12-20T15:10:27;17.17;;;2.72;;
46597;SDS011;32318;48.858;8.252;2023-12-20T15:18:27;21.55;;;2.63;;
46597;SDS011;32318;48.858;8.252;2023-12-20T15:26:27;16.83;;;3.88;;
46597;SDS011;32318;48.858;8.252;2023-12-20T15:34:29;20.42;;;5.43;;
46597;SDS011;32318;48.858;8.252;2023-12-20T15:42:29;17.98;;;3.20;;
46597;SDS011;32318;48.858;8.252;2023-12-20T15:50:31;9.63;;;3.30;;
46597;SDS011;32318;48.858;8.252;2023-12-20T15:58:32;12.15;;;3.38;;
46597;SDS011;32318;48.858;8.252;2023-12-20T16:06:33;15.00;;;2.92;;
46597;SDS011;32318;48.858;8.252;2023-12-20T16:14:34;13.27;;;2.55;;
46597;SDS011;32318;48.858;8.252;2023-12-20T16:22:34;21.35;;;3.10;;
46597;SDS011;32318;48.858;8.252;2023-12-20T16:30:35;11.60;;;2.88;;
46597;SDS011;32318;48.858;8.252;2023-12-20T16:38:35;10.60;;;3.28;;
46597;SDS011;32318;48.858;8.252;2023-12-20T16:46:35;13.77;;;2.80;;
46597;SDS011;32318;48.858;8.252;2023-12-20T16:54:36;10.40;;;2.78;;
46597;SDS011;32318;48.858;8.252;2023-12-20T17:02:36;13.35;;;3.00;;
46597;SDS011;32318;48.858;8.252;2023-12-20T17:10:36;20.60;;;2.47;;
46597;SDS011;32318;48.858;8.252;2023-12-20T17:18:36;8.70;;;2.35;;
46597;SDS011;32318;48.858;8.252;2023-12-20T17:26:38;12.63;;;2.58;;
46597;SDS011;32318;48.858;8.252;2023-12-20T17:34:38;10.18;;;2.08;;
46597;SDS011;32318;48.858;8.252;2023-12-20T17:42:39;15.77;;;2.47;;
46597;SDS011;32318;48.858;8.252;2023-12-20T17:50:39;13.45;;;2.70;;
46597;SDS011;32318;48.858;8.252;2023-12-20T17:58:39;17.90;;;2.70;;
46597;SDS011;32318;48.858;8.252;2023-12-20T18:06:39;9.05;;;2.55;;
46597;SDS011;32318;48.858;8.252;2023-12-20T18:14:40;12.80;;;4.50;;
46597;SDS011;32318;48.858;8.252;2023-12-20T18:22:41;16.20;;;2.78;;
46597;SDS011;32318;48.858;8.252;2023-12-20T18:30:41;13.43;;;2.78;;
46597;SDS011;32318;48.858;8.252;2023-12-20T18:38:41;9.38;;;2.83;;
46597;SDS011;32318;48.858;8.252;2023-12-20T18:46:43;9.32;;;2.55;;
46597;SDS011;32318;48.858;8.252;2023-12-20T18:54:43;8.07;;;2.80;;
46597;SDS011;32318;48.858;8.252;2023-12-20T19:02:44;6.60;;;1.83;;
46597;SDS011;32318;48.858;8.252;2023-12-20T19:10:44;7.53;;;2.30;;
46597;SDS011;32318;48.858;8.252;2023-12-20T19:18:44;15.38;;;3.40;;
46597;SDS011;32318;48.858;8.252;2023-12-20T19:26:46;10.77;;;2.80;;
46597;SDS011;32318;48.858;8.252;2023-12-20T19:34:46;12.60;;;2.38;;
46597;SDS011;32318;48.858;8.252;2023-12-20T19:42:46;7.22;;;1.88;;
46597;SDS011;32318;48.858;8.252;2023-12-20T19:50:46;12.27;;;2.08;;
46597;SDS011;32318;48.858;8.252;2023-12-20T19:58:51;7.50;;;2.33;;
46597;SDS011;32318;48.858;8.252;2023-12-20T20:06:51;13.23;;;2.47;;
46597;SDS011;32318;48.858;8.252;2023-12-20T20:14:52;9.48;;;2.63;;
46597;SDS011;32318;48.858;8.252;2023-12-20T20:22:53;6.38;;;2.20;;
46597;SDS011;32318;48.858;8.252;2023-12-20T20:30:56;10.35;;;2.67;;
46597;SDS011;32318;48.858;8.252;2023-12-20T20:38:57;9.00;;;2.58;;
46597;SDS011;32318;48.858;8.252;2023-12-20T20:46:57;8.15;;;1.90;;
46597;SDS011;32318;48.858;8.252;2023-12-20T20:54:57;9.23;;;1.75;;
46597;SDS011;32318;48.858;8.252;2023-12-20T21:02:58;6.40;;;1.85;;
46597;SDS011;32318;48.858;8.252;2023-12-20T21:11:00;10.80;;;2.25;;
46597;SDS011;32318;48.858;8.252;2023-12-20T21:19:00;13.52;;;2.42;;
46597;SDS011;32318;48.858;8.252;2023-12-20T21:27:00;11.63;;;2.10;;
46597;SDS011;32318;48.858;8.252;2023-12-20T21:35:02;6.78;;;2.03;;
46597;SDS011;32318;48.858;8.252;2023-12-20T21:43:02;14.88;;;2.28;;
46597;SDS011;32318;48.858;8.252;2023-12-20T21:51:03;8.88;;;2.05;;
46597;SDS011;32318;48.858;8.252;2023-12-20T21:59:03;12.63;;;2.35;;
46597;SDS011;32318;48.858;8.252;2023-12-20T22:07:03;14.45;;;2.55;;
46597;SDS011;32318;48.858;8.252;2023-12-20T22:15:04;8.93;;;2.20;;
46597;SDS011;32318;48.858;8.252;2023-12-20T22:23:10;6.60;;;2.13;;
46597;SDS011;32318;48.858;8.252;2023-12-20T22:31:11;13.35;;;2.00;;
46597;SDS011;32318;48.858;8.252;2023-12-20T22:39:11;7.28;;;1.90;;
46597;SDS011;32318;48.858;8.252;2023-12-20T22:47:11;4.75;;;1.45;;
46597;SDS011;32318;48.858;8.252;2023-12-20T22:55:12;7.05;;;1.85;;
46597;SDS011;32318;48.858;8.252;2023-12-20T23:03:12;7.30;;;2.05;;
46597;SDS011;32318;48.858;8.252;2023-12-20T23:11:12;7.68;;;1.60;;
46597;SDS011;32318;48.858;8.252;2023-12-20T23:19:13;3.83;;;1.10;;
46597;SDS011;32318;48.858;8.252;2023-12-20T23:27:13;9.95;;;1.25;;
46597;SDS011;32318;48.858;8.252;2023-12-20T23:35:13;16.65;;;1.63;;
46597;SDS011;32318;48.858;8.252;2023-12-20T23:43:13;6.22;;;1.42;;
46597;SDS011;32318;48.858;8.252;2023-12-20T23:51:14;3.50;;;1.02;;
46597;SDS011;32318;48.858;8.252;2023-12-20T23:59:14;4.40;;;1.30;;
